Main page
METAR-TAF:

METAR-TAF

Airports :

Houari Boumediene Airport

Algiers, Algeria

latitude: 36-43N, longitude: 003-15E, elevation: 25 m

Current weather observation

The report was made 23 minutes ago, at 21:30 UTC
Wind 5 kt from the North, varying between West/Northwest and North/Northeast
Temperature 20°C
Humidity 88%
Pressure 1020 hPa
Visibility 10 km or more
Few clouds at a height of 2000 ft
Scattered clouds at a height of 20000 ft

METAR: DAAG 172130Z 35005KT 300V020 9999 FEW020 SCT200 20/18 Q1020

Time: 22:53 (21:53 UTC)

Forecast

The report was made 1 hour and 53 minutes ago, at 20:00 UTC
Forecast valid from 17 at 20 UTC to 18 at 18 UTC
Wind 5 kt from the Northeast
Visibility 10 km or more
Few clouds at a height of 2300 ft
Becoming
from 18 at 13 UTC to 18 at 16 UTC
Wind 10 kt from the West/Northwest

TAF: DAAG 172000Z 1720/1818 04005KT 9999 FEW023 BECMG 1813/1816 30010KT

Weather observations and forecasts of more than 4000 airports (METAR and TAF reports).

The available stations are represented by yellow and red dots on the map.

Hover mouse over dot to see the name of the station.

Then click to see weather observations and forecasts.

To change the map : click on the green buttons with a black cross to zoom in, on the green button with a dash to zoom out, or on the green arrows for adjacent maps.


METAR-TAF: